Time;durP1;ratioP1;P1;durP2;ratioP2;P2;SDS_P1;SDS_P2;PMS_P1;PMS_P2;Temp;Humidity;BMP_temperature;BMP_pressure;BME280_temperature;BME280_humidity;BME280_pressure;Samples;Min_cycle;Max_cycle;Signal;HPM_P1;HPM_P2
2023/07/16 00:01:16;;;;;;;13.30;1.88;;;18.80;99.90;;;;;;4200483;28;20270;-90
2023/07/16 00:03:17;;;;;;;7.65;1.65;;;18.70;99.90;;;;;;4183779;28;20756;-88
2023/07/16 00:05:18;;;;;;;8.35;1.80;;;18.50;99.90;;;;;;4183631;28;20188;-88
2023/07/16 00:07:19;;;;;;;9.38;1.80;;;18.40;99.90;;;;;;4166912;28;20160;-90
2023/07/16 00:09:19;;;;;;;9.48;2.03;;;18.50;99.90;;;;;;4183162;28;20218;-88
2023/07/16 00:11:20;;;;;;;6.93;1.90;;;18.60;99.90;;;;;;4167063;28;20175;-88
2023/07/16 00:13:21;;;;;;;8.10;1.98;;;18.50;99.90;;;;;;4183506;28;20176;-89
2023/07/16 00:15:21;;;;;;;13.20;2.10;;;18.50;99.90;;;;;;4167134;28;20171;-88
2023/07/16 00:17:22;;;;;;;8.35;1.88;;;18.40;99.90;;;;;;4166863;28;20180;-88
2023/07/16 00:19:23;;;;;;;8.95;1.98;;;18.20;99.90;;;;;;4183231;28;20199;-88
2023/07/16 00:21:24;;;;;;;7.60;1.73;;;18.30;99.90;;;;;;4200021;28;20202;-90
2023/07/16 00:23:25;;;;;;;8.68;1.60;;;18.30;99.90;;;;;;4166855;28;20188;-89
2023/07/16 00:25:25;;;;;;;10.43;2.17;;;18.30;99.90;;;;;;4166851;28;20195;-88
2023/07/16 00:27:26;;;;;;;7.75;1.77;;;18.10;99.90;;;;;;4166400;28;20177;-90
2023/07/16 00:29:27;;;;;;;9.85;2.13;;;18.10;99.90;;;;;;4166329;28;20220;-89
2023/07/16 00:31:27;;;;;;;14.13;1.98;;;18.00;99.90;;;;;;4166866;28;20606;-88
2023/07/16 00:33:29;;;;;;;10.07;2.10;;;17.90;99.90;;;;;;4166741;28;20211;-88
2023/07/16 00:35:30;;;;;;;10.13;2.03;;;17.90;99.90;;;;;;4199933;28;20665;-89
2023/07/16 00:37:30;;;;;;;13.82;1.83;;;17.80;99.90;;;;;;4166724;28;20176;-90
2023/07/16 00:39:31;;;;;;;10.82;1.80;;;17.80;99.90;;;;;;4183039;28;20191;-89
2023/07/16 00:41:32;;;;;;;6.05;1.60;;;17.80;99.90;;;;;;4166428;28;20282;-89
2023/07/16 00:43:32;;;;;;;9.85;1.70;;;17.90;99.90;;;;;;4165904;28;20179;-88
2023/07/16 00:45:33;;;;;;;14.63;1.92;;;18.00;99.90;;;;;;4182841;28;20179;-88
2023/07/16 00:47:34;;;;;;;11.32;1.80;;;18.00;99.90;;;;;;4183013;28;20501;-87
2023/07/16 00:49:36;;;;;;;13.27;2.15;;;17.90;99.90;;;;;;4182945;28;20222;-88
2023/07/16 00:51:37;;;;;;;23.85;2.10;;;17.80;99.90;;;;;;4199480;28;20175;-89
2023/07/16 00:53:39;;;;;;;12.15;2.58;;;17.70;99.90;;;;;;4182887;28;20655;-89
2023/07/16 00:55:40;;;;;;;9.55;1.90;;;17.50;99.90;;;;;;4166469;28;20588;-89
2023/07/16 00:57:41;;;;;;;11.88;2.13;;;17.60;99.90;;;;;;4166409;28;20164;-89
2023/07/16 00:59:43;;;;;;;11.43;1.73;;;17.70;99.90;;;;;;4166480;28;20195;-88
2023/07/16 01:01:43;;;;;;;10.30;2.10;;;17.80;99.90;;;;;;4182799;28;20171;-89
2023/07/16 01:03:48;;;;;;;9.70;2.20;;;17.60;99.90;;;;;;4166722;28;20163;-89
2023/07/16 01:06:15;;;;;;;11.45;1.58;;;17.60;99.90;;;;;;4166177;28;20180;-88
2023/07/16 01:08:21;;;;;;;9.50;1.67;;;17.50;99.90;;;;;;4182656;28;20233;-87
2023/07/16 01:10:25;;;;;;;9.25;1.77;;;17.50;99.90;;;;;;4166144;28;20723;-88
2023/07/16 01:12:27;;;;;;;13.52;2.30;;;17.40;99.90;;;;;;4199029;28;20163;-88
2023/07/16 01:14:30;;;;;;;12.05;2.08;;;17.30;99.90;;;;;;4165854;28;20192;-92
2023/07/16 01:16:30;;;;;;;15.10;2.35;;;17.40;99.90;;;;;;4215983;28;20168;-91
2023/07/16 01:18:31;;;;;;;12.73;2.03;;;17.50;99.90;;;;;;4165808;28;20590;-92
2023/07/16 01:20:32;;;;;;;12.27;2.33;;;17.60;99.90;;;;;;4165707;28;20206;-91
2023/07/16 01:22:52;;;;;;;8.75;2.70;;;17.50;99.90;;;;;;4165912;28;20225;-90
2023/07/16 01:25:11;;;;;;;8.43;2.25;;;17.60;99.90;;;;;;4165897;28;20243;-92
2023/07/16 01:27:43;;;;;;;8.05;2.20;;;17.50;99.90;;;;;;4166018;28;20270;-91
2023/07/16 01:29:49;;;;;;;10.27;2.50;;;17.60;99.90;;;;;;4198532;28;20275;-92
2023/07/16 01:31:51;;;;;;;9.98;2.45;;;17.50;99.90;;;;;;4165898;28;20183;-91
2023/07/16 01:33:54;;;;;;;10.40;2.75;;;17.50;99.90;;;;;;4182380;28;20560;-91
2023/07/16 01:35:55;;;;;;;10.05;2.60;;;17.40;99.90;;;;;;4165670;28;20628;-92
2023/07/16 01:37:56;;;;;;;9.25;2.65;;;17.50;99.90;;;;;;4198766;28;20206;-89
2023/07/16 01:39:57;;;;;;;11.90;2.78;;;17.60;99.90;;;;;;4165697;28;20167;-92
2023/07/16 01:41:58;;;;;;;10.95;2.50;;;17.50;99.90;;;;;;4198543;28;20639;-90
2023/07/16 01:43:59;;;;;;;8.82;2.80;;;17.60;99.90;;;;;;4182100;28;20576;-90
2023/07/16 01:46:00;;;;;;;11.15;2.50;;;17.70;99.90;;;;;;4198547;28;20193;-90
2023/07/16 01:48:19;;;;;;;6.78;2.85;;;17.70;99.90;;;;;;4181797;28;20170;-91
2023/07/16 01:50:20;;;;;;;8.48;2.53;;;17.70;99.90;;;;;;4181720;28;20215;-91
2023/07/16 01:52:20;;;;;;;12.50;3.20;;;17.60;99.90;;;;;;4165310;28;20625;-91
2023/07/16 01:54:21;;;;;;;13.40;2.60;;;17.60;99.90;;;;;;4214266;28;20181;-91
2023/07/16 01:56:22;;;;;;;6.50;2.75;;;17.60;99.90;;;;;;4182109;28;20202;-91
2023/07/16 01:58:23;;;;;;;9.55;2.83;;;17.60;99.90;;;;;;4165444;28;20199;-92
2023/07/16 02:00:23;;;;;;;10.73;2.83;;;17.60;99.90;;;;;;4165508;28;20175;-93
2023/07/16 02:02:27;;;;;;;8.90;2.92;;;17.60;99.90;;;;;;4182059;28;20541;-92
2023/07/16 02:04:28;;;;;;;10.02;2.63;;;17.60;99.90;;;;;;4165315;28;20212;-90
2023/07/16 02:06:29;;;;;;;12.07;2.60;;;17.50;99.90;;;;;;4198554;28;20179;-91
2023/07/16 02:08:29;;;;;;;8.20;2.20;;;17.50;99.90;;;;;;4181688;28;20188;-91
2023/07/16 02:10:31;;;;;;;7.03;2.40;;;17.40;99.90;;;;;;4198044;28;20260;-91
2023/07/16 02:12:31;;;;;;;11.35;1.85;;;17.40;99.90;;;;;;4164977;28;20324;-90
2023/07/16 02:14:32;;;;;;;7.00;2.47;;;17.40;99.90;;;;;;4165041;28;20176;-91
2023/07/16 02:16:33;;;;;;;8.25;2.17;;;17.40;99.90;;;;;;4164999;28;20179;-91
2023/07/16 02:18:33;;;;;;;8.65;2.78;;;17.30;99.90;;;;;;4164943;28;20192;-91
2023/07/16 02:20:34;;;;;;;13.77;2.30;;;17.20;99.90;;;;;;4165129;28;20222;-90
2023/07/16 02:22:35;;;;;;;14.65;2.72;;;17.20;99.90;;;;;;4164970;28;20176;-89
2023/07/16 02:24:36;;;;;;;12.30;2.65;;;17.20;99.90;;;;;;4181437;28;20192;-92
2023/07/16 02:26:36;;;;;;;9.48;2.65;;;17.40;99.90;;;;;;4196715;22;20215;-86
2023/07/16 02:28:37;;;;;;;10.77;2.92;;;17.50;99.90;;;;;;4157203;28;20195;-84
2023/07/16 02:30:40;;;;;;;8.35;2.80;;;17.30;99.90;;;;;;4164164;28;20254;-86
2023/07/16 02:32:41;;;;;;;9.75;2.78;;;17.30;99.90;;;;;;4164092;28;20207;-83
2023/07/16 02:34:42;;;;;;;7.63;2.22;;;17.20;99.90;;;;;;4164302;28;20180;-81
2023/07/16 02:36:43;;;;;;;7.88;2.80;;;17.10;99.90;;;;;;4165260;28;20187;-83
2023/07/16 02:38:43;;;;;;;8.20;2.95;;;17.10;99.90;;;;;;4147651;28;20220;-81
2023/07/16 02:40:45;;;;;;;12.45;3.38;;;16.90;99.90;;;;;;4163925;28;20238;-84
2023/07/16 02:42:46;;;;;;;11.85;4.07;;;17.10;99.90;;;;;;4163849;28;20263;-83
2023/07/16 02:44:46;;;;;;;10.55;3.10;;;17.10;99.90;;;;;;4165224;28;20214;-83
2023/07/16 02:46:47;;;;;;;11.15;3.30;;;17.20;99.90;;;;;;4147302;28;20169;-82
2023/07/16 02:48:48;;;;;;;13.57;3.53;;;17.30;99.90;;;;;;4165060;28;20191;-82
2023/07/16 02:50:49;;;;;;;14.80;3.78;;;17.30;99.90;;;;;;4163832;28;20300;-83
2023/07/16 02:52:50;;;;;;;10.10;3.85;;;17.20;99.90;;;;;;4147439;28;20626;-83
2023/07/16 02:54:50;;;;;;;10.32;3.83;;;17.30;99.90;;;;;;4147503;28;20177;-82
2023/07/16 02:56:51;;;;;;;8.40;3.65;;;17.20;99.90;;;;;;4147329;28;20172;-83
2023/07/16 02:58:52;;;;;;;12.45;4.03;;;17.20;99.90;;;;;;4180007;28;20199;-82
2023/07/16 03:00:53;;;;;;;20.63;4.32;;;17.40;99.90;;;;;;4180236;28;20576;-83
2023/07/16 03:02:54;;;;;;;10.32;3.38;;;17.50;99.90;;;;;;4147217;28;20165;-83
2023/07/16 03:04:55;;;;;;;9.90;3.70;;;17.40;99.90;;;;;;4163754;28;20168;-82
2023/07/16 03:06:55;;;;;;;9.98;3.80;;;17.40;99.90;;;;;;4168152;28;20195;-83
2023/07/16 03:08:57;;;;;;;13.40;4.45;;;17.40;99.90;;;;;;4167188;28;20246;-83
2023/07/16 03:10:58;;;;;;;10.32;4.03;;;17.30;99.90;;;;;;4167012;28;20188;-83
2023/07/16 03:12:58;;;;;;;11.60;4.18;;;17.20;99.90;;;;;;4166804;28;20625;-82
2023/07/16 03:14:59;;;;;;;11.18;3.55;;;17.20;99.90;;;;;;4167049;28;20262;-83
2023/07/16 03:17:00;;;;;;;11.73;4.50;;;17.10;99.90;;;;;;4150729;28;20267;-82
2023/07/16 03:19:00;;;;;;;15.48;3.88;;;17.10;99.90;;;;;;4183468;28;20680;-82
2023/07/16 03:21:01;;;;;;;13.57;3.83;;;16.90;99.90;;;;;;4150496;28;20251;-86
2023/07/16 03:23:02;;;;;;;11.18;3.53;;;16.90;99.90;;;;;;4168152;28;20180;-82
2023/07/16 03:25:03;;;;;;;14.98;4.03;;;17.00;99.90;;;;;;4166894;28;20172;-82
2023/07/16 03:27:04;;;;;;;8.77;4.10;;;17.00;99.90;;;;;;4166857;28;20195;-82
2023/07/16 03:29:05;;;;;;;10.13;3.70;;;16.90;99.90;;;;;;4150282;28;20200;-82
2023/07/16 03:31:06;;;;;;;13.90;4.15;;;17.10;99.90;;;;;;4150184;28;20760;-82
2023/07/16 03:33:09;;;;;;;15.85;3.95;;;17.00;99.90;;;;;;4166833;28;20164;-82
2023/07/16 03:35:10;;;;;;;11.48;3.83;;;16.90;99.90;;;;;;4166780;28;20200;-82
2023/07/16 03:37:11;;;;;;;17.35;4.47;;;17.00;99.90;;;;;;4166705;28;20291;-82
2023/07/16 03:39:11;;;;;;;13.00;4.38;;;17.00;99.90;;;;;;4167608;28;20195;-82
2023/07/16 03:41:12;;;;;;;16.65;4.13;;;16.90;99.90;;;;;;4167848;28;20225;-82
2023/07/16 03:43:14;;;;;;;12.65;3.78;;;16.90;99.90;;;;;;4150254;28;20672;-82
2023/07/16 03:45:14;;;;;;;13.32;4.18;;;16.90;99.90;;;;;;4150286;28;20188;-82
2023/07/16 03:47:15;;;;;;;14.00;4.18;;;16.90;99.90;;;;;;4150119;28;20165;-82
2023/07/16 03:49:16;;;;;;;14.98;4.30;;;16.90;99.90;;;;;;4166226;28;20199;-82
2023/07/16 03:51:17;;;;;;;15.93;4.30;;;16.90;99.90;;;;;;4150242;28;20185;-82
2023/07/16 03:53:18;;;;;;;9.95;4.00;;;16.90;99.90;;;;;;4167629;28;20164;-82
2023/07/16 03:55:20;;;;;;;10.75;4.40;;;16.90;99.90;;;;;;4150133;28;20220;-82
2023/07/16 03:57:20;;;;;;;19.40;5.13;;;17.10;99.90;;;;;;4166608;28;20172;-82
2023/07/16 03:59:22;;;;;;;10.65;4.20;;;17.00;99.90;;;;;;4166346;28;20262;-82
2023/07/16 04:01:23;;;;;;;13.48;4.28;;;16.90;99.90;;;;;;4149859;28;20242;-82
2023/07/16 04:03:23;;;;;;;10.27;3.88;;;17.10;99.90;;;;;;4149947;28;20192;-82
2023/07/16 04:05:25;;;;;;;11.25;4.18;;;17.00;99.90;;;;;;4149930;28;20169;-82
2023/07/16 04:07:26;;;;;;;14.15;4.75;;;17.00;99.90;;;;;;4149779;28;20273;-82
2023/07/16 04:09:26;;;;;;;11.05;4.03;;;17.00;99.90;;;;;;4165803;28;20216;-82
2023/07/16 04:11:27;;;;;;;12.30;4.18;;;17.10;99.90;;;;;;4166259;28;20183;-82
2023/07/16 04:13:28;;;;;;;10.50;4.07;;;17.10;99.90;;;;;;4149744;28;20180;-82
2023/07/16 04:15:29;;;;;;;14.52;4.80;;;17.10;99.90;;;;;;4149974;28;20581;-82
2023/07/16 04:17:29;;;;;;;16.13;4.55;;;16.90;99.90;;;;;;4166618;28;20183;-82
2023/07/16 04:19:30;;;;;;;14.35;4.22;;;16.80;99.90;;;;;;4149758;28;20215;-82
2023/07/16 04:21:31;;;;;;;11.65;4.22;;;16.80;99.90;;;;;;4165843;28;20172;-82
2023/07/16 04:23:31;;;;;;;11.18;4.53;;;16.80;99.90;;;;;;4165851;28;20211;-82
2023/07/16 04:25:32;;;;;;;12.82;4.38;;;16.90;99.90;;;;;;4165814;28;20171;-82
2023/07/16 04:27:33;;;;;;;9.95;5.13;;;16.80;99.90;;;;;;4167228;28;20191;-82
2023/07/16 04:29:33;;;;;;;11.80;4.55;;;17.10;99.90;;;;;;4165819;28;20209;-82
2023/07/16 04:31:35;;;;;;;16.40;5.38;;;16.90;99.90;;;;;;4166013;28;20187;-82
2023/07/16 04:33:36;;;;;;;14.23;5.43;;;16.80;99.90;;;;;;4167108;28;20215;-83
2023/07/16 04:35:36;;;;;;;20.55;5.18;;;16.80;99.90;;;;;;4165613;28;20211;-82
2023/07/16 04:37:37;;;;;;;13.13;5.18;;;16.80;99.90;;;;;;4149509;28;20173;-82
2023/07/16 04:39:38;;;;;;;17.15;5.13;;;16.90;99.90;;;;;;4165706;28;20210;-84
2023/07/16 04:41:38;;;;;;;12.55;5.30;;;16.80;99.90;;;;;;4167024;28;20170;-86
2023/07/16 04:43:39;;;;;;;18.27;4.95;;;16.90;99.90;;;;;;4182275;28;20212;-85
2023/07/16 04:45:40;;;;;;;11.38;5.32;;;16.90;99.90;;;;;;4165809;28;20180;-81
2023/07/16 04:47:41;;;;;;;14.65;5.63;;;16.90;99.90;;;;;;4149103;28;20267;-82
2023/07/16 04:49:41;;;;;;;11.70;4.85;;;16.90;99.90;;;;;;4165533;28;20200;-82
2023/07/16 04:51:42;;;;;;;13.52;4.85;;;17.00;99.90;;;;;;4149204;28;20676;-82
2023/07/16 04:53:43;;;;;;;17.45;5.03;;;17.10;99.90;;;;;;4165400;28;20169;-82
2023/07/16 04:55:44;;;;;;;12.80;4.72;;;17.00;99.90;;;;;;4166706;28;20576;-82
2023/07/16 04:57:44;;;;;;;13.82;4.70;;;17.00;99.90;;;;;;4149013;28;20618;-82
2023/07/16 04:59:45;;;;;;;18.70;5.22;;;17.00;99.90;;;;;;4165300;28;20199;-82
2023/07/16 05:01:46;;;;;;;16.08;5.50;;;17.10;99.90;;;;;;4166562;28;20231;-81
2023/07/16 05:03:46;;;;;;;15.35;5.65;;;17.00;99.90;;;;;;4166496;28;20537;-82
2023/07/16 05:05:47;;;;;;;13.05;5.05;;;17.20;99.90;;;;;;4165481;28;20231;-82
2023/07/16 05:07:48;;;;;;;12.93;5.78;;;17.10;99.90;;;;;;4165635;28;20215;-83
2023/07/16 05:09:48;;;;;;;17.45;5.55;;;17.10;99.90;;;;;;4165251;28;20219;-86
2023/07/16 05:11:49;;;;;;;15.18;6.03;;;17.00;99.90;;;;;;4165117;28;20540;-83
2023/07/16 05:13:50;;;;;;;14.40;5.75;;;17.00;99.90;;;;;;4165048;28;20275;-83
2023/07/16 05:15:50;;;;;;;18.17;6.60;;;17.10;99.90;;;;;;4165290;28;20196;-83
2023/07/16 05:17:51;;;;;;;16.75;6.05;;;17.10;99.90;;;;;;4165025;28;20281;-83
2023/07/16 05:19:52;;;;;;;14.32;5.75;;;17.20;99.90;;;;;;4148888;28;20291;-83
2023/07/16 05:21:52;;;;;;;14.43;5.43;;;17.20;99.90;;;;;;4149026;28;20180;-86
2023/07/16 05:23:53;;;;;;;13.40;5.75;;;17.30;99.90;;;;;;4166374;28;20564;-84
2023/07/16 05:25:54;;;;;;;19.27;6.28;;;17.40;99.90;;;;;;4166328;28;20168;-83
2023/07/16 05:27:55;;;;;;;16.85;6.00;;;17.50;99.90;;;;;;4164807;28;20241;-83
2023/07/16 05:29:55;;;;;;;16.83;6.28;;;17.60;99.90;;;;;;4163901;28;20207;-83
2023/07/16 05:31:56;;;;;;;20.08;6.47;;;17.70;99.90;;;;;;4148654;28;20546;-83
2023/07/16 05:33:57;;;;;;;14.13;6.43;;;17.80;99.90;;;;;;4166294;28;20164;-83
2023/07/16 05:35:57;;;;;;;16.23;6.32;;;17.80;99.90;;;;;;4164932;28;20671;-83
2023/07/16 05:37:58;;;;;;;13.68;6.50;;;17.60;99.90;;;;;;4164728;28;20172;-86
2023/07/16 05:39:59;;;;;;;16.55;5.97;;;17.50;99.90;;;;;;4164964;28;20227;-85
2023/07/16 05:42:02;;;;;;;17.13;6.43;;;17.50;99.90;;;;;;4181435;28;20710;-86
2023/07/16 05:44:03;;;;;;;16.83;6.25;;;17.50;99.90;;;;;;4164786;28;20186;-83
2023/07/16 05:46:05;;;;;;;14.20;5.78;;;17.60;99.90;;;;;;4181377;28;20246;-85
2023/07/16 05:48:05;;;;;;;15.77;6.43;;;17.70;99.90;;;;;;4164610;28;20178;-83
2023/07/16 05:50:07;;;;;;;15.35;6.63;;;17.70;99.90;;;;;;4164885;28;20286;-85
2023/07/16 05:52:09;;;;;;;13.85;5.95;;;17.70;99.90;;;;;;4148370;28;20180;-84
2023/07/16 05:54:09;;;;;;;19.42;6.72;;;17.60;99.90;;;;;;4164666;28;20183;-84
2023/07/16 05:56:10;;;;;;;21.50;6.53;;;17.70;99.90;;;;;;4164598;28;20287;-83
2023/07/16 05:58:11;;;;;;;15.43;6.63;;;17.90;99.90;;;;;;4165690;28;20275;-82
2023/07/16 06:00:13;;;;;;;17.20;6.50;;;18.00;99.90;;;;;;4148019;28;20184;-82
2023/07/16 06:02:16;;;;;;;21.05;6.15;;;18.10;99.90;;;;;;4164782;28;20172;-83
2023/07/16 06:04:17;;;;;;;17.92;6.85;;;18.10;99.90;;;;;;4165834;28;20656;-82
2023/07/16 06:06:18;;;;;;;13.63;6.25;;;18.10;99.90;;;;;;4164621;28;20203;-83
2023/07/16 06:08:18;;;;;;;19.73;6.30;;;18.20;99.90;;;;;;4164429;28;20235;-83
2023/07/16 06:10:19;;;;;;;18.27;6.32;;;18.10;99.90;;;;;;4148259;28;20755;-83
2023/07/16 06:12:20;;;;;;;17.13;6.38;;;18.10;99.90;;;;;;4164648;28;20172;-85
2023/07/16 06:14:20;;;;;;;19.38;7.13;;;18.00;99.90;;;;;;4180691;28;20671;-84
2023/07/16 06:16:21;;;;;;;17.80;6.68;;;18.10;99.90;;;;;;4164259;28;20207;-86
2023/07/16 06:18:22;;;;;;;13.55;6.32;;;18.30;99.90;;;;;;4164481;28;20223;-82
2023/07/16 06:20:23;;;;;;;20.55;6.68;;;18.30;99.90;;;;;;4165695;28;20168;-82
2023/07/16 06:22:23;;;;;;;20.88;6.75;;;18.20;99.90;;;;;;4164376;28;20176;-83
2023/07/16 06:24:24;;;;;;;18.63;6.20;;;18.20;99.90;;;;;;4164466;28;20168;-86
2023/07/16 06:26:25;;;;;;;15.48;7.05;;;18.30;99.90;;;;;;4180697;28;20180;-82
2023/07/16 06:28:25;;;;;;;15.60;5.88;;;18.30;99.90;;;;;;4164153;28;20184;-85
2023/07/16 06:30:26;;;;;;;21.02;6.80;;;18.50;99.90;;;;;;4165158;28;20196;-83
2023/07/16 06:32:27;;;;;;;20.10;6.55;;;18.70;99.90;;;;;;4164197;28;20183;-83
2023/07/16 06:34:27;;;;;;;15.85;6.45;;;18.90;99.90;;;;;;4165518;28;20186;-83
2023/07/16 06:36:28;;;;;;;19.45;6.55;;;19.10;99.90;;;;;;4147769;28;20164;-83
2023/07/16 06:38:29;;;;;;;21.67;5.97;;;19.20;99.90;;;;;;4163957;28;20192;-82
2023/07/16 06:40:30;;;;;;;15.32;6.40;;;19.20;99.90;;;;;;4147690;28;20561;-83
2023/07/16 06:42:31;;;;;;;21.60;7.72;;;19.10;99.90;;;;;;4164013;28;20168;-83
2023/07/16 06:44:32;;;;;;;19.15;6.43;;;19.00;99.90;;;;;;4147459;28;20172;-83
2023/07/16 06:46:33;;;;;;;19.27;6.78;;;18.90;99.90;;;;;;4147578;28;20613;-83
2023/07/16 06:48:34;;;;;;;18.23;6.28;;;19.00;99.90;;;;;;4147595;28;20282;-83
2023/07/16 06:50:36;;;;;;;19.83;6.45;;;18.90;99.90;;;;;;4164231;28;20224;-83
2023/07/16 06:52:36;;;;;;;15.45;6.05;;;18.90;99.90;;;;;;4163996;28;20168;-83
2023/07/16 06:54:41;;;;;;;16.73;6.05;;;19.00;99.90;;;;;;4164099;28;20744;-83
2023/07/16 06:56:41;;;;;;;14.30;6.43;;;19.10;99.90;;;;;;4147297;28;20645;-86
2023/07/16 06:58:42;;;;;;;15.93;6.28;;;19.00;99.90;;;;;;4147383;28;20189;-83
2023/07/16 07:00:43;;;;;;;20.40;5.75;;;19.20;99.90;;;;;;4163932;28;20180;-83
2023/07/16 07:02:44;;;;;;;21.13;6.93;;;19.30;99.90;;;;;;4163954;28;20206;-86
2023/07/16 07:04:44;;;;;;;16.98;6.55;;;19.30;99.90;;;;;;4163753;28;20633;-85
2023/07/16 07:06:45;;;;;;;21.67;6.40;;;19.30;99.90;;;;;;4163728;28;20166;-84
2023/07/16 07:08:46;;;;;;;14.75;5.53;;;19.50;99.90;;;;;;4163954;28;20195;-83
2023/07/16 07:10:48;;;;;;;18.02;6.07;;;19.80;99.90;;;;;;4164914;28;20208;-83
2023/07/16 07:12:49;;;;;;;16.83;5.72;;;20.20;99.90;;;;;;4147483;28;20177;-83
2023/07/16 07:14:50;;;;;;;18.02;6.40;;;20.80;99.90;;;;;;4165220;28;20646;-83
2023/07/16 07:16:50;;;;;;;19.23;6.35;;;21.20;99.90;;;;;;4147493;28;20176;-84
2023/07/16 07:18:51;;;;;;;18.65;5.78;;;21.40;99.90;;;;;;4180198;28;20187;-86
2023/07/16 07:20:52;;;;;;;12.32;5.18;;;21.80;99.90;;;;;;4163827;28;20569;-84
2023/07/16 07:22:52;;;;;;;15.57;5.82;;;21.90;99.90;;;;;;4164983;28;20173;-83
2023/07/16 07:24:53;;;;;;;13.23;5.57;;;21.70;99.90;;;;;;4164872;28;20556;-83
2023/07/16 07:26:54;;;;;;;17.17;6.10;;;21.90;99.90;;;;;;4147394;28;20184;-83
2023/07/16 07:28:54;;;;;;;15.55;5.97;;;22.00;99.90;;;;;;4179666;28;20229;-86
2023/07/16 07:30:55;;;;;;;17.55;5.88;;;22.10;99.90;;;;;;4164068;28;20664;-84
2023/07/16 07:32:56;;;;;;;13.00;5.80;;;22.00;99.90;;;;;;4163832;28;20187;-84
2023/07/16 07:34:56;;;;;;;18.40;5.97;;;22.00;99.90;;;;;;4163934;28;20183;-84
2023/07/16 07:36:57;;;;;;;15.27;5.80;;;22.10;99.90;;;;;;4180207;28;20262;-84
2023/07/16 07:38:58;;;;;;;13.05;5.45;;;22.20;99.90;;;;;;4147209;28;20284;-84
2023/07/16 07:40:58;;;;;;;16.92;6.28;;;21.80;99.90;;;;;;4147330;28;20177;-83
2023/07/16 07:42:59;;;;;;;18.42;6.20;;;22.00;99.90;;;;;;4163428;28;20179;-83
2023/07/16 07:45:00;;;;;;;18.40;5.60;;;21.60;99.90;;;;;;4163480;28;20715;-85
2023/07/16 07:47:01;;;;;;;18.25;5.63;;;21.60;99.90;;;;;;4146964;28;20173;-84
2023/07/16 07:49:02;;;;;;;14.15;6.05;;;21.40;99.90;;;;;;4163354;28;20699;-84
2023/07/16 07:51:02;;;;;;;19.70;5.85;;;21.90;99.90;;;;;;4163344;28;20204;-86
2023/07/16 07:53:03;;;;;;;16.48;6.15;;;22.60;99.90;;;;;;4166237;28;20172;-86
2023/07/16 07:55:04;;;;;;;10.50;5.15;;;23.00;99.90;;;;;;4167928;28;20195;-83
2023/07/16 07:57:05;;;;;;;11.73;5.20;;;23.90;99.90;;;;;;4166623;28;20164;-86
2023/07/16 07:59:06;;;;;;;13.13;5.35;;;24.50;99.90;;;;;;4149711;28;20193;-84
2023/07/16 08:01:07;;;;;;;13.88;5.38;;;24.90;99.90;;;;;;4166522;28;20176;-84
2023/07/16 08:03:08;;;;;;;16.42;5.82;;;25.70;99.90;;;;;;4150209;28;20179;-83
2023/07/16 08:05:09;;;;;;;11.52;5.25;;;26.20;99.90;;;;;;4166454;28;20267;-84
2023/07/16 08:07:09;;;;;;;15.98;5.10;;;26.10;99.90;;;;;;4149958;28;20183;-84
2023/07/16 08:09:10;;;;;;;13.00;5.07;;;26.50;99.90;;;;;;4149651;28;20271;-85
2023/07/16 08:11:11;;;;;;;12.38;5.20;;;26.80;99.90;;;;;;4166449;28;20183;-84
2023/07/16 08:13:11;;;;;;;11.85;5.28;;;26.40;99.90;;;;;;4166079;28;20176;-85
2023/07/16 08:15:15;;;;;;;12.55;5.00;;;26.50;99.90;;;;;;4166302;28;20179;-84
2023/07/16 08:17:16;;;;;;;12.70;5.00;;;26.70;99.90;;;;;;4149750;28;20172;-83
2023/07/16 08:19:16;;;;;;;17.85;4.93;;;26.50;99.90;;;;;;4149613;28;20284;-83
2023/07/16 08:21:19;;;;;;;12.32;4.75;;;25.80;99.90;;;;;;4167273;28;20172;-83
2023/07/16 08:23:20;;;;;;;10.43;5.15;;;24.90;99.90;;;;;;4167398;28;20177;-83
2023/07/16 08:25:21;;;;;;;14.68;4.68;;;24.20;99.90;;;;;;4165964;28;20263;-83
2023/07/16 08:27:22;;;;;;;15.45;5.07;;;23.90;99.90;;;;;;4183159;28;20191;-83
2023/07/16 08:29:22;;;;;;;15.23;5.20;;;24.20;99.90;;;;;;4149297;28;20657;-86
2023/07/16 08:31:23;;;;;;;11.63;4.82;;;24.30;99.90;;;;;;4166041;28;20172;-84
2023/07/16 08:33:24;;;;;;;17.08;5.68;;;25.00;99.90;;;;;;4149557;28;20274;-83
2023/07/16 08:35:24;;;;;;;16.08;4.68;;;25.30;99.90;;;;;;4165902;28;20172;-85
2023/07/16 08:37:25;;;;;;;8.80;4.40;;;25.10;99.90;;;;;;4165701;28;20204;-83
2023/07/16 08:39:26;;;;;;;10.60;4.57;;;24.70;99.90;;;;;;4149444;28;20200;-83
2023/07/16 08:41:27;;;;;;;12.60;4.65;;;24.50;99.90;;;;;;4149526;28;20219;-83
2023/07/16 08:43:29;;;;;;;13.82;4.25;;;23.30;99.90;;;;;;4167023;28;20176;-83
2023/07/16 08:45:30;;;;;;;9.55;4.50;;;22.90;99.90;;;;;;4165909;28;20169;-85
2023/07/16 08:47:31;;;;;;;14.43;4.57;;;22.50;99.90;;;;;;4167155;28;20168;-85
2023/07/16 08:49:34;;;;;;;11.63;4.65;;;22.70;99.90;;;;;;4165560;28;20625;-83
2023/07/16 08:51:36;;;;;;;9.93;4.25;;;22.70;99.90;;;;;;4149449;28;20207;-83
2023/07/16 08:53:36;;;;;;;14.05;4.93;;;22.80;99.90;;;;;;4165548;28;20168;-84
2023/07/16 08:55:38;;;;;;;13.55;4.97;;;22.90;99.90;;;;;;4165674;28;20175;-83
2023/07/16 08:57:40;;;;;;;17.38;4.95;;;22.90;99.90;;;;;;4149040;28;20249;-83
2023/07/16 08:59:41;;;;;;;11.77;4.72;;;23.00;99.90;;;;;;4165591;28;20207;-84
2023/07/16 09:01:42;;;;;;;10.40;4.22;;;23.10;99.90;;;;;;4165696;28;20664;-85
2023/07/16 09:03:43;;;;;;;12.80;4.28;;;23.00;99.90;;;;;;4148859;28;20169;-83
2023/07/16 09:05:44;;;;;;;12.68;4.50;;;23.00;99.90;;;;;;4165483;28;20242;-83
2023/07/16 09:07:45;;;;;;;17.00;4.63;;;23.00;99.90;;;;;;4165449;28;20226;-83
2023/07/16 09:09:59;;;;;;;11.30;4.22;;;23.20;99.90;;;;;;4165410;28;20708;-83
2023/07/16 09:12:01;;;;;;;12.52;4.55;;;23.60;99.90;;;;;;4148795;28;20188;-83
2023/07/16 09:14:03;;;;;;;12.90;4.97;;;23.50;99.90;;;;;;4149099;28;20266;-83
2023/07/16 09:16:04;;;;;;;13.38;4.85;;;23.70;99.90;;;;;;4165406;28;20222;-86
2023/07/16 09:18:04;;;;;;;13.68;4.65;;;23.30;99.90;;;;;;4149028;28;20566;-83
2023/07/16 09:20:06;;;;;;;12.65;4.55;;;23.00;99.90;;;;;;4148941;28;20176;-83
2023/07/16 09:22:09;;;;;;;10.98;4.38;;;22.90;99.90;;;;;;4165157;28;20173;-83
2023/07/16 09:24:09;;;;;;;11.43;4.63;;;22.70;99.90;;;;;;4181725;28;20186;-83
2023/07/16 09:26:10;;;;;;;16.00;4.60;;;22.30;99.90;;;;;;4148796;28;20189;-83
2023/07/16 09:28:12;;;;;;;14.30;4.68;;;22.10;99.90;;;;;;4165005;28;20195;-83
2023/07/16 09:30:16;;;;;;;13.90;4.72;;;22.00;99.90;;;;;;4164833;28;20216;-84
2023/07/16 09:32:16;;;;;;;14.10;4.97;;;22.00;99.90;;;;;;4164871;28;20171;-83
2023/07/16 09:34:17;;;;;;;14.75;4.78;;;22.10;99.90;;;;;;4165239;28;20657;-85
2023/07/16 09:36:24;;;;;;;14.45;4.90;;;21.90;99.90;;;;;;4148780;28;20700;-83
2023/07/16 09:38:27;;;;;;;13.48;4.88;;;22.00;99.90;;;;;;4164796;28;20200;-86
2023/07/16 09:40:29;;;;;;;13.95;4.57;;;22.30;99.90;;;;;;4164764;28;20254;-83
2023/07/16 09:42:30;;;;;;;13.77;4.50;;;22.60;99.90;;;;;;4148236;28;20199;-84
2023/07/16 09:44:31;;;;;;;14.68;4.97;;;22.50;99.90;;;;;;4165850;28;20529;-83
2023/07/16 09:46:32;;;;;;;12.27;4.60;;;22.60;99.90;;;;;;4164575;28;20166;-83
2023/07/16 09:48:32;;;;;;;9.70;4.25;;;22.60;99.90;;;;;;4164770;28;20676;-83
2023/07/16 09:50:34;;;;;;;15.75;4.20;;;22.80;99.90;;;;;;4164549;28;20719;-83
2023/07/16 09:52:35;;;;;;;8.30;4.00;;;22.40;99.90;;;;;;4148274;28;20165;-86
2023/07/16 09:54:38;;;;;;;12.98;4.63;;;22.00;99.90;;;;;;4181241;28;20267;-83
2023/07/16 09:56:47;;;;;;;14.55;4.75;;;21.80;99.90;;;;;;4164657;28;20629;-83
2023/07/16 09:58:49;;;;;;;13.60;4.88;;;22.10;99.90;;;;;;4164452;28;20230;-86
2023/07/16 10:00:51;;;;;;;10.60;4.15;;;22.30;99.90;;;;;;4148315;28;20180;-83
2023/07/16 10:02:52;;;;;;;13.85;4.65;;;22.30;99.90;;;;;;4164540;28;20540;-83
2023/07/16 10:04:55;;;;;;;9.75;3.95;;;22.30;99.90;;;;;;4164634;28;20171;-83
2023/07/16 10:06:58;;;;;;;12.77;4.47;;;22.00;99.90;;;;;;4164493;28;20537;-86
2023/07/16 10:08:59;;;;;;;14.23;4.53;;;22.00;99.90;;;;;;4181127;28;20191;-85
2023/07/16 10:11:00;;;;;;;9.32;4.40;;;21.80;99.90;;;;;;4148295;28;20305;-85
2023/07/16 10:13:03;;;;;;;13.90;4.43;;;21.60;99.90;;;;;;4164313;28;20209;-86
2023/07/16 10:15:05;;;;;;;10.10;4.22;;;21.60;99.90;;;;;;4163970;28;20640;-85
2023/07/16 10:17:06;;;;;;;10.38;4.35;;;21.80;99.90;;;;;;4164298;28;20533;-83
2023/07/16 10:19:07;;;;;;;15.45;4.78;;;21.50;99.90;;;;;;4164406;28;20223;-84
2023/07/16 10:21:09;;;;;;;11.48;4.45;;;21.50;99.90;;;;;;4164356;28;20176;-86
2023/07/16 10:23:14;;;;;;;17.20;4.75;;;21.50;99.90;;;;;;4147843;28;20621;-86
2023/07/16 10:25:17;;;;;;;14.68;4.90;;;21.60;99.90;;;;;;4164240;28;20266;-86